sensor_id;sensor_type;location;lat;lon;timestamp;P1;durP1;ratioP1;P2;durP2;ratioP2
60018;SDS011;45870;42.528;26.740;2023-08-06T00:00:21;23.00;;;17.55;;
60018;SDS011;45870;42.528;26.740;2023-08-06T00:02:47;24.52;;;17.77;;
60018;SDS011;45870;42.528;26.740;2023-08-06T00:05:13;23.92;;;16.98;;
60018;SDS011;45870;42.528;26.740;2023-08-06T00:07:43;21.60;;;16.65;;
60018;SDS011;45870;42.528;26.740;2023-08-06T00:10:09;25.27;;;17.33;;
60018;SDS011;45870;42.528;26.740;2023-08-06T00:12:35;24.02;;;16.50;;
60018;SDS011;45870;42.528;26.740;2023-08-06T00:15:01;26.20;;;16.70;;
60018;SDS011;45870;42.528;26.740;2023-08-06T00:17:27;25.85;;;17.40;;
60018;SDS011;45870;42.528;26.740;2023-08-06T00:19:52;22.10;;;16.20;;
60018;SDS011;45870;42.528;26.740;2023-08-06T00:22:18;21.48;;;16.25;;
60018;SDS011;45870;42.528;26.740;2023-08-06T00:24:44;22.95;;;17.20;;
60018;SDS011;45870;42.528;26.740;2023-08-06T00:27:09;25.55;;;16.45;;
60018;SDS011;45870;42.528;26.740;2023-08-06T00:29:35;26.98;;;16.90;;
60018;SDS011;45870;42.528;26.740;2023-08-06T00:32:01;23.88;;;17.40;;
60018;SDS011;45870;42.528;26.740;2023-08-06T00:34:26;22.48;;;16.38;;
60018;SDS011;45870;42.528;26.740;2023-08-06T00:36:52;25.08;;;15.48;;
60018;SDS011;45870;42.528;26.740;2023-08-06T00:39:18;23.05;;;15.57;;
60018;SDS011;45870;42.528;26.740;2023-08-06T00:41:44;22.20;;;15.48;;
60018;SDS011;45870;42.528;26.740;2023-08-06T00:44:10;17.65;;;14.90;;
60018;SDS011;45870;42.528;26.740;2023-08-06T00:46:35;23.80;;;15.88;;
60018;SDS011;45870;42.528;26.740;2023-08-06T00:49:01;20.92;;;16.13;;
60018;SDS011;45870;42.528;26.740;2023-08-06T00:51:27;19.20;;;15.40;;
60018;SDS011;45870;42.528;26.740;2023-08-06T00:53:53;22.45;;;17.10;;
60018;SDS011;45870;42.528;26.740;2023-08-06T00:56:19;21.27;;;17.33;;
60018;SDS011;45870;42.528;26.740;2023-08-06T00:58:45;25.58;;;17.42;;
60018;SDS011;45870;42.528;26.740;2023-08-06T01:01:11;21.13;;;17.63;;
60018;SDS011;45870;42.528;26.740;2023-08-06T01:03:37;24.67;;;18.10;;
60018;SDS011;45870;42.528;26.740;2023-08-06T01:06:03;25.10;;;19.55;;
60018;SDS011;45870;42.528;26.740;2023-08-06T01:13:45;30.95;;;20.00;;
60018;SDS011;45870;42.528;26.740;2023-08-06T01:16:17;28.15;;;20.15;;
60018;SDS011;45870;42.528;26.740;2023-08-06T01:18:46;29.23;;;23.63;;
60018;SDS011;45870;42.528;26.740;2023-08-06T01:21:14;30.92;;;21.92;;
60018;SDS011;45870;42.528;26.740;2023-08-06T01:23:42;34.42;;;21.00;;
60018;SDS011;45870;42.528;26.740;2023-08-06T01:26:15;30.60;;;20.63;;
60018;SDS011;45870;42.528;26.740;2023-08-06T01:31:47;28.77;;;21.40;;
60018;SDS011;45870;42.528;26.740;2023-08-06T01:34:22;27.38;;;19.55;;
60018;SDS011;45870;42.528;26.740;2023-08-06T01:36:50;28.52;;;18.33;;
60018;SDS011;45870;42.528;26.740;2023-08-06T01:39:17;30.70;;;19.58;;
60018;SDS011;45870;42.528;26.740;2023-08-06T01:41:53;22.20;;;17.30;;
60018;SDS011;45870;42.528;26.740;2023-08-06T01:44:18;26.00;;;18.85;;
60018;SDS011;45870;42.528;26.740;2023-08-06T01:46:44;34.95;;;20.33;;
60018;SDS011;45870;42.528;26.740;2023-08-06T01:49:09;23.33;;;17.42;;
60018;SDS011;45870;42.528;26.740;2023-08-06T01:51:35;24.58;;;16.90;;
60018;SDS011;45870;42.528;26.740;2023-08-06T01:54:01;26.35;;;16.50;;
60018;SDS011;45870;42.528;26.740;2023-08-06T01:56:26;25.98;;;16.42;;
60018;SDS011;45870;42.528;26.740;2023-08-06T01:58:52;22.85;;;17.08;;
60018;SDS011;45870;42.528;26.740;2023-08-06T02:01:17;30.60;;;17.63;;
60018;SDS011;45870;42.528;26.740;2023-08-06T02:03:43;23.75;;;18.23;;
60018;SDS011;45870;42.528;26.740;2023-08-06T02:06:09;27.35;;;18.42;;
60018;SDS011;45870;42.528;26.740;2023-08-06T02:08:34;24.02;;;17.38;;
60018;SDS011;45870;42.528;26.740;2023-08-06T02:11:00;25.75;;;16.83;;
60018;SDS011;45870;42.528;26.740;2023-08-06T02:13:27;31.70;;;18.65;;
60018;SDS011;45870;42.528;26.740;2023-08-06T02:15:52;29.33;;;19.67;;
60018;SDS011;45870;42.528;26.740;2023-08-06T02:18:18;24.92;;;18.02;;
60018;SDS011;45870;42.528;26.740;2023-08-06T02:20:43;28.30;;;18.95;;
60018;SDS011;45870;42.528;26.740;2023-08-06T02:23:09;27.00;;;20.05;;
60018;SDS011;45870;42.528;26.740;2023-08-06T02:25:35;23.50;;;17.75;;
60018;SDS011;45870;42.528;26.740;2023-08-06T02:28:01;24.33;;;17.50;;
60018;SDS011;45870;42.528;26.740;2023-08-06T02:30:26;27.02;;;16.73;;
60018;SDS011;45870;42.528;26.740;2023-08-06T02:32:52;24.98;;;17.42;;
60018;SDS011;45870;42.528;26.740;2023-08-06T02:35:18;24.92;;;19.58;;
60018;SDS011;45870;42.528;26.740;2023-08-06T02:37:43;25.80;;;18.88;;
60018;SDS011;45870;42.528;26.740;2023-08-06T02:40:09;28.23;;;19.42;;
60018;SDS011;45870;42.528;26.740;2023-08-06T02:42:35;30.58;;;18.90;;
60018;SDS011;45870;42.528;26.740;2023-08-06T02:45:00;26.08;;;17.85;;
60018;SDS011;45870;42.528;26.740;2023-08-06T02:47:26;24.85;;;19.23;;
60018;SDS011;45870;42.528;26.740;2023-08-06T02:49:51;25.17;;;18.83;;
60018;SDS011;45870;42.528;26.740;2023-08-06T02:52:17;31.88;;;18.98;;
60018;SDS011;45870;42.528;26.740;2023-08-06T02:54:43;25.00;;;19.98;;
60018;SDS011;45870;42.528;26.740;2023-08-06T02:57:09;33.42;;;22.60;;
60018;SDS011;45870;42.528;26.740;2023-08-06T02:59:35;36.40;;;26.35;;
60018;SDS011;45870;42.528;26.740;2023-08-06T03:02:00;43.53;;;27.73;;
60018;SDS011;45870;42.528;26.740;2023-08-06T03:04:26;40.97;;;29.50;;
60018;SDS011;45870;42.528;26.740;2023-08-06T03:06:51;48.45;;;31.58;;
60018;SDS011;45870;42.528;26.740;2023-08-06T03:09:17;46.03;;;31.52;;
60018;SDS011;45870;42.528;26.740;2023-08-06T03:11:43;49.33;;;32.00;;
60018;SDS011;45870;42.528;26.740;2023-08-06T03:14:09;49.28;;;32.67;;
60018;SDS011;45870;42.528;26.740;2023-08-06T03:16:35;42.42;;;28.38;;
60018;SDS011;45870;42.528;26.740;2023-08-06T03:19:01;43.42;;;28.58;;
60018;SDS011;45870;42.528;26.740;2023-08-06T03:21:26;37.08;;;26.83;;
60018;SDS011;45870;42.528;26.740;2023-08-06T03:23:52;38.55;;;26.50;;
60018;SDS011;45870;42.528;26.740;2023-08-06T03:26:18;35.47;;;26.08;;
60018;SDS011;45870;42.528;26.740;2023-08-06T03:28:43;33.25;;;24.48;;
60018;SDS011;45870;42.528;26.740;2023-08-06T03:31:09;30.85;;;23.88;;
60018;SDS011;45870;42.528;26.740;2023-08-06T03:33:35;33.30;;;22.38;;
60018;SDS011;45870;42.528;26.740;2023-08-06T03:36:00;30.77;;;23.90;;
60018;SDS011;45870;42.528;26.740;2023-08-06T03:38:26;29.13;;;23.38;;
60018;SDS011;45870;42.528;26.740;2023-08-06T03:40:53;33.30;;;23.23;;
60018;SDS011;45870;42.528;26.740;2023-08-06T03:43:20;24.23;;;21.05;;
60018;SDS011;45870;42.528;26.740;2023-08-06T03:45:49;28.95;;;21.75;;
60018;SDS011;45870;42.528;26.740;2023-08-06T03:48:14;29.45;;;20.05;;
60018;SDS011;45870;42.528;26.740;2023-08-06T03:50:40;28.65;;;20.23;;
60018;SDS011;45870;42.528;26.740;2023-08-06T03:53:06;27.25;;;18.17;;
60018;SDS011;45870;42.528;26.740;2023-08-06T03:55:31;25.30;;;18.02;;
60018;SDS011;45870;42.528;26.740;2023-08-06T03:57:57;26.77;;;18.23;;
60018;SDS011;45870;42.528;26.740;2023-08-06T04:00:23;23.75;;;17.02;;
60018;SDS011;45870;42.528;26.740;2023-08-06T04:02:48;22.85;;;16.20;;
60018;SDS011;45870;42.528;26.740;2023-08-06T04:05:15;22.17;;;15.48;;
60018;SDS011;45870;42.528;26.740;2023-08-06T04:07:42;21.00;;;16.27;;
60018;SDS011;45870;42.528;26.740;2023-08-06T04:10:08;21.23;;;14.77;;
60018;SDS011;45870;42.528;26.740;2023-08-06T04:12:33;17.05;;;13.65;;
60018;SDS011;45870;42.528;26.740;2023-08-06T04:15:01;16.67;;;13.98;;
60018;SDS011;45870;42.528;26.740;2023-08-06T04:17:28;17.10;;;13.70;;
60018;SDS011;45870;42.528;26.740;2023-08-06T04:19:54;14.15;;;12.65;;
60018;SDS011;45870;42.528;26.740;2023-08-06T04:22:23;16.33;;;13.10;;
60018;SDS011;45870;42.528;26.740;2023-08-06T04:24:49;20.50;;;15.00;;
60018;SDS011;45870;42.528;26.740;2023-08-06T04:27:17;17.80;;;12.63;;
60018;SDS011;45870;42.528;26.740;2023-08-06T04:29:44;16.38;;;12.75;;
60018;SDS011;45870;42.528;26.740;2023-08-06T04:32:10;19.60;;;13.32;;
60018;SDS011;45870;42.528;26.740;2023-08-06T04:34:36;17.58;;;13.02;;
60018;SDS011;45870;42.528;26.740;2023-08-06T04:37:02;17.02;;;12.65;;
60018;SDS011;45870;42.528;26.740;2023-08-06T04:39:29;17.27;;;13.50;;
60018;SDS011;45870;42.528;26.740;2023-08-06T04:41:55;17.02;;;12.52;;
60018;SDS011;45870;42.528;26.740;2023-08-06T04:44:22;16.40;;;11.80;;
60018;SDS011;45870;42.528;26.740;2023-08-06T04:46:48;15.70;;;11.52;;
60018;SDS011;45870;42.528;26.740;2023-08-06T04:49:14;17.30;;;12.90;;
60018;SDS011;45870;42.528;26.740;2023-08-06T04:51:39;18.50;;;11.65;;
60018;SDS011;45870;42.528;26.740;2023-08-06T04:54:05;15.48;;;12.23;;
60018;SDS011;45870;42.528;26.740;2023-08-06T04:56:31;17.45;;;11.38;;
60018;SDS011;45870;42.528;26.740;2023-08-06T04:58:57;18.17;;;11.68;;
60018;SDS011;45870;42.528;26.740;2023-08-06T05:01:24;14.32;;;11.60;;
60018;SDS011;45870;42.528;26.740;2023-08-06T05:03:50;14.25;;;11.43;;
60018;SDS011;45870;42.528;26.740;2023-08-06T05:06:15;18.40;;;11.55;;
60018;SDS011;45870;42.528;26.740;2023-08-06T05:08:41;21.20;;;10.73;;
60018;SDS011;45870;42.528;26.740;2023-08-06T05:11:07;17.25;;;10.65;;
60018;SDS011;45870;42.528;26.740;2023-08-06T05:13:32;14.57;;;10.18;;
60018;SDS011;45870;42.528;26.740;2023-08-06T05:15:58;14.18;;;9.55;;
60018;SDS011;45870;42.528;26.740;2023-08-06T05:18:24;14.90;;;9.63;;
60018;SDS011;45870;42.528;26.740;2023-08-06T05:20:49;13.82;;;8.57;;
60018;SDS011;45870;42.528;26.740;2023-08-06T05:23:15;13.13;;;8.75;;
60018;SDS011;45870;42.528;26.740;2023-08-06T05:25:41;14.20;;;8.80;;
60018;SDS011;45870;42.528;26.740;2023-08-06T05:28:07;13.38;;;8.73;;
60018;SDS011;45870;42.528;26.740;2023-08-06T05:30:38;14.13;;;9.60;;
60018;SDS011;45870;42.528;26.740;2023-08-06T05:33:07;9.32;;;7.97;;
60018;SDS011;45870;42.528;26.740;2023-08-06T05:35:33;9.52;;;8.10;;
60018;SDS011;45870;42.528;26.740;2023-08-06T05:37:58;11.88;;;7.65;;
60018;SDS011;45870;42.528;26.740;2023-08-06T05:40:24;10.45;;;8.00;;
60018;SDS011;45870;42.528;26.740;2023-08-06T05:42:51;12.20;;;7.15;;
60018;SDS011;45870;42.528;26.740;2023-08-06T05:45:18;10.05;;;6.82;;
60018;SDS011;45870;42.528;26.740;2023-08-06T05:47:44;11.70;;;6.38;;
60018;SDS011;45870;42.528;26.740;2023-08-06T05:50:10;8.45;;;5.95;;
60018;SDS011;45870;42.528;26.740;2023-08-06T05:52:35;11.27;;;5.60;;
60018;SDS011;45870;42.528;26.740;2023-08-06T05:55:01;12.13;;;5.45;;
60018;SDS011;45870;42.528;26.740;2023-08-06T05:57:26;9.65;;;5.20;;
60018;SDS011;45870;42.528;26.740;2023-08-06T05:59:52;9.02;;;5.47;;
60018;SDS011;45870;42.528;26.740;2023-08-06T06:02:18;8.23;;;5.25;;
60018;SDS011;45870;42.528;26.740;2023-08-06T06:04:44;8.50;;;5.50;;
60018;SDS011;45870;42.528;26.740;2023-08-06T06:07:09;9.98;;;5.43;;
60018;SDS011;45870;42.528;26.740;2023-08-06T06:09:35;7.63;;;5.57;;
60018;SDS011;45870;42.528;26.740;2023-08-06T06:12:00;7.07;;;4.97;;
60018;SDS011;45870;42.528;26.740;2023-08-06T06:14:26;9.43;;;4.97;;
60018;SDS011;45870;42.528;26.740;2023-08-06T06:16:52;9.23;;;5.13;;
60018;SDS011;45870;42.528;26.740;2023-08-06T06:19:18;5.65;;;4.57;;
60018;SDS011;45870;42.528;26.740;2023-08-06T06:21:43;6.10;;;4.50;;
60018;SDS011;45870;42.528;26.740;2023-08-06T06:24:09;8.57;;;4.60;;
60018;SDS011;45870;42.528;26.740;2023-08-06T06:26:35;6.10;;;4.40;;
60018;SDS011;45870;42.528;26.740;2023-08-06T06:29:01;6.72;;;4.10;;
60018;SDS011;45870;42.528;26.740;2023-08-06T06:31:26;8.57;;;4.55;;
60018;SDS011;45870;42.528;26.740;2023-08-06T06:33:57;10.18;;;4.18;;
60018;SDS011;45870;42.528;26.740;2023-08-06T06:36:23;8.48;;;4.32;;
60018;SDS011;45870;42.528;26.740;2023-08-06T06:38:51;9.98;;;4.50;;
60018;SDS011;45870;42.528;26.740;2023-08-06T06:41:17;8.80;;;4.68;;
60018;SDS011;45870;42.528;26.740;2023-08-06T06:43:43;7.72;;;4.65;;
60018;SDS011;45870;42.528;26.740;2023-08-06T06:46:08;8.13;;;4.82;;
60018;SDS011;45870;42.528;26.740;2023-08-06T06:48:34;10.52;;;4.40;;
60018;SDS011;45870;42.528;26.740;2023-08-06T06:50:59;7.13;;;4.22;;
60018;SDS011;45870;42.528;26.740;2023-08-06T06:53:25;7.22;;;4.47;;
60018;SDS011;45870;42.528;26.740;2023-08-06T06:55:54;7.22;;;4.65;;
60018;SDS011;45870;42.528;26.740;2023-08-06T06:58:20;8.30;;;4.55;;
60018;SDS011;45870;42.528;26.740;2023-08-06T07:00:47;8.05;;;4.78;;
60018;SDS011;45870;42.528;26.740;2023-08-06T07:03:13;8.05;;;4.45;;
60018;SDS011;45870;42.528;26.740;2023-08-06T07:05:40;7.90;;;4.22;;
60018;SDS011;45870;42.528;26.740;2023-08-06T07:08:06;7.45;;;4.10;;
60018;SDS011;45870;42.528;26.740;2023-08-06T07:10:31;6.85;;;4.20;;
60018;SDS011;45870;42.528;26.740;2023-08-06T07:12:57;8.40;;;4.45;;
60018;SDS011;45870;42.528;26.740;2023-08-06T07:15:23;7.82;;;4.30;;
60018;SDS011;45870;42.528;26.740;2023-08-06T07:17:48;6.85;;;3.92;;
60018;SDS011;45870;42.528;26.740;2023-08-06T07:20:14;8.90;;;4.50;;
60018;SDS011;45870;42.528;26.740;2023-08-06T07:22:40;6.47;;;4.30;;
60018;SDS011;45870;42.528;26.740;2023-08-06T07:25:11;7.50;;;4.68;;
60018;SDS011;45870;42.528;26.740;2023-08-06T07:27:40;7.57;;;4.22;;
60018;SDS011;45870;42.528;26.740;2023-08-06T07:30:06;8.90;;;4.30;;
60018;SDS011;45870;42.528;26.740;2023-08-06T07:32:33;6.15;;;4.20;;
60018;SDS011;45870;42.528;26.740;2023-08-06T07:34:59;7.28;;;4.10;;
60018;SDS011;45870;42.528;26.740;2023-08-06T07:37:27;6.70;;;3.88;;
60018;SDS011;45870;42.528;26.740;2023-08-06T07:39:53;5.40;;;4.15;;
60018;SDS011;45870;42.528;26.740;2023-08-06T07:42:20;4.70;;;3.63;;
60018;SDS011;45870;42.528;26.740;2023-08-06T07:44:55;6.80;;;3.63;;
60018;SDS011;45870;42.528;26.740;2023-08-06T07:47:23;7.90;;;4.18;;
60018;SDS011;45870;42.528;26.740;2023-08-06T07:49:49;8.18;;;4.30;;
60018;SDS011;45870;42.528;26.740;2023-08-06T07:52:15;5.82;;;3.65;;
60018;SDS011;45870;42.528;26.740;2023-08-06T07:54:41;7.00;;;3.90;;
60018;SDS011;45870;42.528;26.740;2023-08-06T07:57:06;6.03;;;3.67;;
60018;SDS011;45870;42.528;26.740;2023-08-06T07:59:32;7.88;;;3.70;;
60018;SDS011;45870;42.528;26.740;2023-08-06T08:01:58;6.18;;;3.65;;
60018;SDS011;45870;42.528;26.740;2023-08-06T08:04:24;5.13;;;3.72;;
60018;SDS011;45870;42.528;26.740;2023-08-06T08:06:50;5.88;;;3.78;;
60018;SDS011;45870;42.528;26.740;2023-08-06T08:09:15;7.70;;;3.65;;
60018;SDS011;45870;42.528;26.740;2023-08-06T08:11:44;7.20;;;3.80;;
60018;SDS011;45870;42.528;26.740;2023-08-06T08:14:10;8.32;;;3.45;;
60018;SDS011;45870;42.528;26.740;2023-08-06T08:16:38;7.57;;;4.10;;
60018;SDS011;45870;42.528;26.740;2023-08-06T08:19:10;8.02;;;3.75;;
60018;SDS011;45870;42.528;26.740;2023-08-06T08:21:40;9.77;;;3.60;;
60018;SDS011;45870;42.528;26.740;2023-08-06T08:24:06;7.25;;;4.10;;
60018;SDS011;45870;42.528;26.740;2023-08-06T08:26:32;5.47;;;3.28;;
60018;SDS011;45870;42.528;26.740;2023-08-06T08:28:57;4.72;;;2.92;;
60018;SDS011;45870;42.528;26.740;2023-08-06T08:31:23;4.53;;;3.13;;
60018;SDS011;45870;42.528;26.740;2023-08-06T08:33:49;4.82;;;3.38;;
60018;SDS011;45870;42.528;26.740;2023-08-06T08:36:14;6.28;;;3.55;;
60018;SDS011;45870;42.528;26.740;2023-08-06T08:38:40;6.68;;;2.83;;
60018;SDS011;45870;42.528;26.740;2023-08-06T08:41:06;5.22;;;3.05;;
60018;SDS011;45870;42.528;26.740;2023-08-06T08:43:36;8.10;;;3.08;;
60018;SDS011;45870;42.528;26.740;2023-08-06T08:46:03;5.85;;;3.50;;
60018;SDS011;45870;42.528;26.740;2023-08-06T08:48:30;8.35;;;3.28;;
60018;SDS011;45870;42.528;26.740;2023-08-06T08:50:56;6.38;;;2.88;;
60018;SDS011;45870;42.528;26.740;2023-08-06T08:53:23;6.32;;;2.97;;
60018;SDS011;45870;42.528;26.740;2023-08-06T08:55:50;8.23;;;3.35;;
60018;SDS011;45870;42.528;26.740;2023-08-06T08:58:16;16.77;;;3.72;;
60018;SDS011;45870;42.528;26.740;2023-08-06T09:00:42;11.43;;;3.53;;
60018;SDS011;45870;42.528;26.740;2023-08-06T09:03:08;5.28;;;3.00;;
60018;SDS011;45870;42.528;26.740;2023-08-06T09:05:34;6.20;;;3.47;;
60018;SDS011;45870;42.528;26.740;2023-08-06T09:08:02;6.78;;;3.20;;
60018;SDS011;45870;42.528;26.740;2023-08-06T09:10:29;7.03;;;3.40;;
60018;SDS011;45870;42.528;26.740;2023-08-06T09:12:56;7.28;;;3.20;;
60018;SDS011;45870;42.528;26.740;2023-08-06T09:15:26;7.78;;;3.08;;
60018;SDS011;45870;42.528;26.740;2023-08-06T09:17:53;7.20;;;3.35;;
60018;SDS011;45870;42.528;26.740;2023-08-06T09:20:19;8.27;;;3.92;;
60018;SDS011;45870;42.528;26.740;2023-08-06T09:22:45;18.83;;;3.80;;
60018;SDS011;45870;42.528;26.740;2023-08-06T09:25:13;14.38;;;4.18;;
60018;SDS011;45870;42.528;26.740;2023-08-06T09:27:47;13.57;;;3.67;;
60018;SDS011;45870;42.528;26.740;2023-08-06T09:30:13;10.82;;;3.40;;
60018;SDS011;45870;42.528;26.740;2023-08-06T09:32:58;14.05;;;3.33;;
60018;SDS011;45870;42.528;26.740;2023-08-06T09:35:30;10.82;;;2.83;;
60018;SDS011;45870;42.528;26.740;2023-08-06T09:38:06;8.85;;;2.58;;
60018;SDS011;45870;42.528;26.740;2023-08-06T09:40:35;5.72;;;2.58;;
60018;SDS011;45870;42.528;26.740;2023-08-06T09:43:01;8.32;;;2.65;;
60018;SDS011;45870;42.528;26.740;2023-08-06T09:47:58;5.70;;;2.58;;
60018;SDS011;45870;42.528;26.740;2023-08-06T09:50:29;5.53;;;2.75;;
60018;SDS011;45870;42.528;26.740;2023-08-06T09:53:01;5.45;;;2.97;;
60018;SDS011;45870;42.528;26.740;2023-08-06T09:55:28;7.40;;;2.90;;
60018;SDS011;45870;42.528;26.740;2023-08-06T09:57:54;5.13;;;2.55;;
60018;SDS011;45870;42.528;26.740;2023-08-06T10:00:20;27.48;;;2.90;;
60018;SDS011;45870;42.528;26.740;2023-08-06T10:02:46;12.02;;;3.03;;
60018;SDS011;45870;42.528;26.740;2023-08-06T10:05:14;6.13;;;2.72;;
60018;SDS011;45870;42.528;26.740;2023-08-06T10:07:40;5.28;;;2.60;;
60018;SDS011;45870;42.528;26.740;2023-08-06T10:10:10;7.40;;;2.75;;
60018;SDS011;45870;42.528;26.740;2023-08-06T10:12:39;6.40;;;3.00;;
60018;SDS011;45870;42.528;26.740;2023-08-06T10:15:09;6.03;;;3.15;;
60018;SDS011;45870;42.528;26.740;2023-08-06T10:17:38;5.28;;;2.72;;
60018;SDS011;45870;42.528;26.740;2023-08-06T10:20:05;9.27;;;2.92;;
60018;SDS011;45870;42.528;26.740;2023-08-06T10:22:33;10.27;;;3.53;;
60018;SDS011;45870;42.528;26.740;2023-08-06T10:25:02;19.20;;;5.35;;
60018;SDS011;45870;42.528;26.740;2023-08-06T10:27:36;14.98;;;5.80;;
60018;SDS011;45870;42.528;26.740;2023-08-06T10:32:53;14.10;;;4.85;;
60018;SDS011;45870;42.528;26.740;2023-08-06T10:35:37;7.65;;;5.07;;
60018;SDS011;45870;42.528;26.740;2023-08-06T10:38:11;9.57;;;5.03;;
60018;SDS011;45870;42.528;26.740;2023-08-06T10:40:39;7.47;;;4.82;;
60018;SDS011;45870;42.528;26.740;2023-08-06T10:45:55;7.55;;;4.47;;
60018;SDS011;45870;42.528;26.740;2023-08-06T10:48:29;7.45;;;5.13;;
60018;SDS011;45870;42.528;26.740;2023-08-06T10:51:01;7.28;;;5.05;;
60018;SDS011;45870;42.528;26.740;2023-08-06T10:53:28;8.23;;;5.00;;
60018;SDS011;45870;42.528;26.740;2023-08-06T10:55:54;10.70;;;5.15;;
60018;SDS011;45870;42.528;26.740;2023-08-06T10:58:23;7.47;;;5.03;;
60018;SDS011;45870;42.528;26.740;2023-08-06T11:00:49;10.90;;;4.97;;
60018;SDS011;45870;42.528;26.740;2023-08-06T11:03:15;11.45;;;5.20;;
60018;SDS011;45870;42.528;26.740;2023-08-06T11:05:48;10.45;;;5.40;;
60018;SDS011;45870;42.528;26.740;2023-08-06T11:08:28;7.68;;;5.05;;
60018;SDS011;45870;42.528;26.740;2023-08-06T11:11:08;9.23;;;4.80;;
60018;SDS011;45870;42.528;26.740;2023-08-06T11:13:36;6.32;;;4.25;;
60018;SDS011;45870;42.528;26.740;2023-08-06T11:16:03;6.57;;;4.50;;
60018;SDS011;45870;42.528;26.740;2023-08-06T11:18:30;9.23;;;4.90;;
60018;SDS011;45870;42.528;26.740;2023-08-06T11:20:59;8.10;;;4.63;;
60018;SDS011;45870;42.528;26.740;2023-08-06T11:23:27;6.40;;;3.95;;
60018;SDS011;45870;42.528;26.740;2023-08-06T11:25:58;4.88;;;4.00;;
60018;SDS011;45870;42.528;26.740;2023-08-06T11:28:24;12.07;;;3.97;;
60018;SDS011;45870;42.528;26.740;2023-08-06T11:30:51;8.27;;;3.42;;
60018;SDS011;45870;42.528;26.740;2023-08-06T11:33:26;6.40;;;3.80;;
60018;SDS011;45870;42.528;26.740;2023-08-06T11:35:54;5.75;;;2.83;;
60018;SDS011;45870;42.528;26.740;2023-08-06T11:38:24;5.70;;;3.13;;
60018;SDS011;45870;42.528;26.740;2023-08-06T11:40:51;5.15;;;2.90;;
60018;SDS011;45870;42.528;26.740;2023-08-06T11:43:18;5.82;;;3.05;;
60018;SDS011;45870;42.528;26.740;2023-08-06T11:45:45;5.97;;;3.20;;
60018;SDS011;45870;42.528;26.740;2023-08-06T11:48:11;5.10;;;3.00;;
60018;SDS011;45870;42.528;26.740;2023-08-06T11:50:37;5.68;;;2.92;;
60018;SDS011;45870;42.528;26.740;2023-08-06T11:53:04;5.97;;;2.75;;
60018;SDS011;45870;42.528;26.740;2023-08-06T11:55:30;4.45;;;2.30;;
60018;SDS011;45870;42.528;26.740;2023-08-06T11:57:56;4.75;;;2.30;;
60018;SDS011;45870;42.528;26.740;2023-08-06T12:00:23;5.05;;;2.65;;
60018;SDS011;45870;42.528;26.740;2023-08-06T12:02:49;6.50;;;2.75;;
60018;SDS011;45870;42.528;26.740;2023-08-06T12:05:17;5.55;;;2.35;;
60018;SDS011;45870;42.528;26.740;2023-08-06T12:07:50;4.85;;;2.35;;
60018;SDS011;45870;42.528;26.740;2023-08-06T12:10:16;7.28;;;2.83;;
60018;SDS011;45870;42.528;26.740;2023-08-06T12:12:44;4.45;;;2.53;;
60018;SDS011;45870;42.528;26.740;2023-08-06T12:15:11;4.45;;;2.95;;
60018;SDS011;45870;42.528;26.740;2023-08-06T12:17:40;5.93;;;3.00;;
60018;SDS011;45870;42.528;26.740;2023-08-06T12:20:06;6.38;;;3.15;;
60018;SDS011;45870;42.528;26.740;2023-08-06T12:22:33;5.95;;;2.80;;
60018;SDS011;45870;42.528;26.740;2023-08-06T12:25:05;4.43;;;2.55;;
60018;SDS011;45870;42.528;26.740;2023-08-06T12:27:36;5.20;;;2.78;;
60018;SDS011;45870;42.528;26.740;2023-08-06T12:30:03;5.00;;;2.80;;
60018;SDS011;45870;42.528;26.740;2023-08-06T12:32:29;5.07;;;2.75;;
60018;SDS011;45870;42.528;26.740;2023-08-06T12:34:55;6.00;;;2.80;;
60018;SDS011;45870;42.528;26.740;2023-08-06T12:37:21;5.72;;;2.80;;
60018;SDS011;45870;42.528;26.740;2023-08-06T12:39:46;4.43;;;2.50;;
60018;SDS011;45870;42.528;26.740;2023-08-06T12:42:12;3.38;;;2.67;;
60018;SDS011;45870;42.528;26.740;2023-08-06T12:44:38;6.65;;;3.05;;
60018;SDS011;45870;42.528;26.740;2023-08-06T12:47:04;3.67;;;2.70;;
60018;SDS011;45870;42.528;26.740;2023-08-06T12:49:29;3.33;;;2.53;;
60018;SDS011;45870;42.528;26.740;2023-08-06T12:51:56;5.95;;;2.38;;
60018;SDS011;45870;42.528;26.740;2023-08-06T12:54:25;4.18;;;2.30;;
60018;SDS011;45870;42.528;26.740;2023-08-06T12:56:51;4.80;;;2.20;;
60018;SDS011;45870;42.528;26.740;2023-08-06T12:59:17;6.32;;;2.40;;
60018;SDS011;45870;42.528;26.740;2023-08-06T13:01:44;7.13;;;2.58;;
60018;SDS011;45870;42.528;26.740;2023-08-06T13:04:10;5.22;;;2.83;;
60018;SDS011;45870;42.528;26.740;2023-08-06T13:06:36;5.25;;;2.92;;
60018;SDS011;45870;42.528;26.740;2023-08-06T13:09:04;5.38;;;2.63;;
60018;SDS011;45870;42.528;26.740;2023-08-06T13:11:31;4.30;;;2.58;;
60018;SDS011;45870;42.528;26.740;2023-08-06T13:14:05;4.18;;;2.80;;
60018;SDS011;45870;42.528;26.740;2023-08-06T13:16:33;4.38;;;3.03;;
60018;SDS011;45870;42.528;26.740;2023-08-06T13:18:59;7.43;;;2.95;;
60018;SDS011;45870;42.528;26.740;2023-08-06T13:21:31;3.63;;;2.90;;
60018;SDS011;45870;42.528;26.740;2023-08-06T13:24:00;4.90;;;3.05;;
60018;SDS011;45870;42.528;26.740;2023-08-06T13:26:31;3.88;;;3.00;;
60018;SDS011;45870;42.528;26.740;2023-08-06T13:28:58;4.90;;;3.30;;
60018;SDS011;45870;42.528;26.740;2023-08-06T13:31:24;6.15;;;2.65;;
60018;SDS011;45870;42.528;26.740;2023-08-06T13:33:50;3.10;;;2.70;;
60018;SDS011;45870;42.528;26.740;2023-08-06T13:36:16;3.08;;;2.70;;
60018;SDS011;45870;42.528;26.740;2023-08-06T13:38:42;4.97;;;2.78;;
60018;SDS011;45870;42.528;26.740;2023-08-06T13:41:08;3.33;;;2.63;;
60018;SDS011;45870;42.528;26.740;2023-08-06T13:43:34;3.13;;;2.65;;
60018;SDS011;45870;42.528;26.740;2023-08-06T13:45:59;3.55;;;2.50;;
60018;SDS011;45870;42.528;26.740;2023-08-06T13:48:25;3.08;;;2.70;;
60018;SDS011;45870;42.528;26.740;2023-08-06T13:50:51;5.65;;;2.47;;
60018;SDS011;45870;42.528;26.740;2023-08-06T13:53:16;4.07;;;3.28;;
60018;SDS011;45870;42.528;26.740;2023-08-06T13:55:42;4.63;;;2.75;;
60018;SDS011;45870;42.528;26.740;2023-08-06T13:58:08;6.53;;;3.42;;
60018;SDS011;45870;42.528;26.740;2023-08-06T14:00:35;3.85;;;2.70;;
60018;SDS011;45870;42.528;26.740;2023-08-06T14:03:01;2.50;;;2.30;;
60018;SDS011;45870;42.528;26.740;2023-08-06T14:05:28;3.03;;;2.22;;
60018;SDS011;45870;42.528;26.740;2023-08-06T14:07:54;2.92;;;2.15;;
60018;SDS011;45870;42.528;26.740;2023-08-06T14:10:19;4.20;;;1.80;;
60018;SDS011;45870;42.528;26.740;2023-08-06T14:12:45;4.10;;;1.90;;
60018;SDS011;45870;42.528;26.740;2023-08-06T14:15:11;3.55;;;2.10;;
60018;SDS011;45870;42.528;26.740;2023-08-06T14:17:38;1.95;;;1.70;;
60018;SDS011;45870;42.528;26.740;2023-08-06T14:20:05;3.70;;;1.90;;
60018;SDS011;45870;42.528;26.740;2023-08-06T14:22:34;2.50;;;1.77;;
60018;SDS011;45870;42.528;26.740;2023-08-06T14:25:01;3.40;;;1.88;;
60018;SDS011;45870;42.528;26.740;2023-08-06T14:27:27;1.98;;;1.80;;
60018;SDS011;45870;42.528;26.740;2023-08-06T14:29:53;2.78;;;1.70;;
60018;SDS011;45870;42.528;26.740;2023-08-06T14:32:19;2.95;;;1.77;;
60018;SDS011;45870;42.528;26.740;2023-08-06T14:34:45;2.03;;;1.80;;
60018;SDS011;45870;42.528;26.740;2023-08-06T14:37:11;2.22;;;2.00;;